createdAt,value
2023-01-12T00:01:51.716Z,100783.63
2023-01-12T00:04:18.870Z,100801.97
2023-01-12T00:06:46.267Z,100795.34
2023-01-12T00:09:13.478Z,100799.53
2023-01-12T00:11:40.714Z,100793.75
2023-01-12T00:14:09.068Z,100787.94
2023-01-12T00:16:39.270Z,100788.03
2023-01-12T00:19:13.546Z,100775.09
2023-01-12T00:22:03.183Z,100765.50
2023-01-12T00:24:37.078Z,100777.94
2023-01-12T00:27:07.022Z,100766.94
2023-01-12T00:29:34.125Z,100766.94
2023-01-12T00:32:00.984Z,100760.84
2023-01-12T00:34:29.808Z,100768.25
2023-01-12T00:36:59.718Z,100743.25
2023-01-12T00:39:26.879Z,100736.34
2023-01-12T00:42:12.338Z,100738.25
2023-01-12T00:44:58.134Z,100736.34
2023-01-12T00:47:25.066Z,100729.19
2023-01-12T00:49:53.433Z,100715.94
2023-01-12T00:52:30.428Z,100717.53
2023-01-12T00:54:59.303Z,100714.28
2023-01-12T00:57:26.922Z,100691.78
2023-01-12T00:59:59.349Z,100709.28
2023-01-12T01:02:29.447Z,100697.50
2023-01-12T01:04:56.833Z,100691.47
2023-01-12T01:07:24.063Z,100696.44
2023-01-12T01:09:51.568Z,100698.69
2023-01-12T01:12:18.666Z,100703.09
2023-01-12T01:14:47.331Z,100715.47
2023-01-12T01:17:14.282Z,100714.66
2023-01-12T01:19:41.300Z,100711.41
2023-01-12T01:22:08.223Z,100705.69
2023-01-12T01:24:35.253Z,100706.59
2023-01-12T01:27:02.109Z,100672.31
2023-01-12T01:29:28.954Z,100689.34
2023-01-12T01:31:55.895Z,100702.53
2023-01-12T01:34:24.091Z,100682.69
2023-01-12T01:36:50.908Z,100684.31
2023-01-12T01:39:17.792Z,100670.06
2023-01-12T01:41:44.821Z,100693.69
2023-01-12T01:44:30.115Z,100671.38
2023-01-12T01:47:06.227Z,100690.84
2023-01-12T01:49:40.764Z,100690.53
2023-01-12T01:52:12.413Z,100713.13
2023-01-12T01:54:53.119Z,100717.50
2023-01-12T01:57:22.570Z,100710.06
2023-01-12T01:59:53.754Z,100685.84
2023-01-12T02:02:21.416Z,100693.28
2023-01-12T02:04:48.633Z,100690.31
2023-01-12T02:07:16.104Z,100685.84
2023-01-12T02:09:44.508Z,100695.75
2023-01-12T02:12:29.795Z,100707.09
2023-01-12T02:15:15.310Z,100701.31
2023-01-12T02:17:54.520Z,100714.75
2023-01-12T02:20:47.249Z,100711.19
2023-01-12T02:23:41.959Z,100702.41
2023-01-12T02:26:36.985Z,100701.31
2023-01-12T02:29:03.646Z,100698.84
2023-01-12T02:31:49.205Z,100701.38
2023-01-12T02:34:45.977Z,100708.81
2023-01-12T02:37:33.827Z,100704.44
2023-01-12T02:40:19.499Z,100675.56
2023-01-12T02:43:01.323Z,100694.50
2023-01-12T02:45:43.047Z,100696.50
2023-01-12T02:48:17.761Z,100712.38
2023-01-12T02:51:22.107Z,100708.22
2023-01-12T02:53:53.192Z,100726.63
2023-01-12T02:56:42.787Z,100727.44
2023-01-12T02:59:17.684Z,100698.94
2023-01-12T03:01:49.142Z,100700.56
2023-01-12T03:04:18.797Z,100696.50
2023-01-12T03:07:05.834Z,100704.13
2023-01-12T03:09:39.513Z,100713.50
2023-01-12T03:12:11.759Z,100720.09
2023-01-12T03:26:50.714Z,100726.56
2023-01-12T03:29:32.058Z,100713.00
2023-01-12T03:31:59.811Z,100713.50
2023-01-12T03:34:27.871Z,100711.19
2023-01-12T03:37:05.776Z,100724.56
2023-01-12T03:39:37.924Z,100723.66
2023-01-12T03:42:13.476Z,100725.88
2023-01-12T03:44:48.755Z,100723.22
2023-01-12T03:47:24.362Z,100713.56
2023-01-12T03:49:56.349Z,100722.69
2023-01-12T03:52:25.522Z,100724.63
2023-01-12T03:54:56.900Z,100731.53
2023-01-12T03:57:24.842Z,100708.16
2023-01-12T03:59:53.639Z,100724.09
2023-01-12T04:02:20.529Z,100726.41
2023-01-12T04:04:47.620Z,100716.63
2023-01-12T04:07:14.452Z,100702.91
2023-01-12T04:09:41.334Z,100702.38
2023-01-12T04:12:11.071Z,100695.00
2023-01-12T04:14:39.203Z,100689.25
2023-01-12T04:17:06.610Z,100695.56
2023-01-12T04:19:36.369Z,100697.75
2023-01-12T04:22:26.176Z,100703.31
2023-01-12T04:24:53.097Z,100707.19
2023-01-12T04:27:20.109Z,100702.53
2023-01-12T04:29:47.036Z,100726.31
2023-01-12T04:32:13.861Z,100716.16
2023-01-12T04:34:40.760Z,100720.31
2023-01-12T04:37:07.613Z,100730.75
2023-01-12T04:39:34.506Z,100722.25
2023-01-12T04:42:01.328Z,100718.91
2023-01-12T04:44:28.170Z,100720.75
2023-01-12T04:46:55.046Z,100723.00
2023-01-12T04:49:21.965Z,100725.75
2023-01-12T04:51:48.882Z,100723.28
2023-01-12T04:54:15.858Z,100731.31
2023-01-12T04:56:42.763Z,100738.50
2023-01-12T04:59:10.806Z,100733.28
2023-01-12T05:01:39.321Z,100750.63
2023-01-12T05:04:07.950Z,100731.53
2023-01-12T05:06:35.083Z,100768.25
2023-01-12T05:09:20.429Z,100772.69
2023-01-12T05:11:47.298Z,100779.88
2023-01-12T05:14:14.109Z,100764.78
2023-01-12T05:16:40.974Z,100795.78
2023-01-12T05:19:09.522Z,100797.66
2023-01-12T05:21:36.510Z,100797.88
2023-01-12T05:24:03.679Z,100797.13
2023-01-12T05:26:30.671Z,100824.06
2023-01-12T05:28:57.547Z,100823.59
2023-01-12T05:31:24.352Z,100824.34
2023-01-12T05:33:51.252Z,100831.38
2023-01-12T05:36:20.738Z,100827.97
2023-01-12T05:38:47.914Z,100829.66
2023-01-12T05:41:14.967Z,100826.03
2023-01-12T05:43:51.717Z,100826.03
2023-01-12T05:46:27.421Z,100821.47
2023-01-12T05:48:55.957Z,100817.28
2023-01-12T05:51:24.912Z,100831.28
2023-01-12T05:53:51.900Z,100819.56
2023-01-12T05:56:25.932Z,100833.97
2023-01-12T05:58:55.154Z,100834.66
2023-01-12T06:01:22.894Z,100828.66
2023-01-12T06:03:55.158Z,100839.94
2023-01-12T06:06:26.063Z,100838.81
2023-01-12T06:08:54.373Z,100839.88
2023-01-12T06:11:40.448Z,100861.13
2023-01-12T06:14:08.982Z,100868.41
2023-01-12T06:16:40.973Z,100874.97
2023-01-12T06:19:09.526Z,100874.78
2023-01-12T06:21:38.565Z,100879.81
2023-01-12T06:24:05.779Z,100866.28
2023-01-12T06:26:32.629Z,100864.63
2023-01-12T06:29:00.539Z,100875.09
2023-01-12T06:31:27.403Z,100873.16
2023-01-12T06:33:54.379Z,100867.22
2023-01-12T06:36:21.237Z,100871.41
2023-01-12T06:38:48.194Z,100877.06
2023-01-12T06:41:50.297Z,100882.31
2023-01-12T06:44:17.125Z,100874.13
2023-01-12T06:46:43.931Z,100881.34
2023-01-12T06:49:10.987Z,100872.41
2023-01-12T06:51:37.927Z,100887.03
2023-01-12T06:54:04.864Z,100879.97
2023-01-12T06:56:31.789Z,100892.84
2023-01-12T06:58:58.690Z,100907.63
2023-01-12T07:01:27.133Z,100906.16
2023-01-12T07:03:54.397Z,100908.31
2023-01-12T07:06:21.553Z,100908.00
2023-01-12T07:08:48.528Z,100909.09
2023-01-12T07:11:16.957Z,100913.50
2023-01-12T07:13:43.918Z,100902.34
2023-01-12T07:16:11.001Z,100890.66
2023-01-12T07:18:38.004Z,100895.59
2023-01-12T07:21:09.808Z,100895.13
2023-01-12T07:23:37.998Z,100900.13
2023-01-12T07:26:05.335Z,100895.22
2023-01-12T07:28:33.988Z,100893.91
2023-01-12T07:31:02.481Z,100911.16
2023-01-12T07:33:29.548Z,100925.09
2023-01-12T07:36:00.571Z,100921.00
2023-01-12T07:38:29.457Z,100932.50
2023-01-12T07:41:00.693Z,100930.03
2023-01-12T07:43:27.870Z,100931.41
2023-01-12T07:45:58.951Z,100937.41
2023-01-12T07:48:27.717Z,100939.91
2023-01-12T07:50:55.076Z,100942.34
2023-01-12T07:53:22.074Z,100945.94
2023-01-12T07:55:48.982Z,100933.72
2023-01-12T07:58:16.001Z,100935.06
2023-01-12T08:00:43.017Z,100943.28
2023-01-12T08:03:14.072Z,100942.41
2023-01-12T08:05:42.643Z,100936.44
2023-01-12T08:08:09.780Z,100932.91
2023-01-12T08:10:36.962Z,100931.84
2023-01-12T08:13:03.889Z,100928.06
2023-01-12T08:15:35.849Z,100927.25
2023-01-12T08:18:08.486Z,100934.06
2023-01-12T08:20:36.857Z,100932.16
2023-01-12T08:23:19.824Z,100925.34
2023-01-12T08:25:54.761Z,100931.91
2023-01-12T08:28:27.453Z,100939.03
2023-01-12T08:30:54.612Z,100944.22
2023-01-12T08:33:21.816Z,100942.59
2023-01-12T08:35:49.595Z,100939.31
2023-01-12T08:38:16.584Z,100949.44
2023-01-12T08:41:02.062Z,100951.06
2023-01-12T08:43:47.468Z,100958.72
2023-01-12T08:46:14.909Z,100961.19
2023-01-12T08:48:41.975Z,100963.13
2023-01-12T08:51:09.420Z,100970.22
2023-01-12T08:53:36.304Z,100965.56
2023-01-12T08:56:03.375Z,100964.22
2023-01-12T08:58:31.718Z,100968.28
2023-01-12T09:01:15.766Z,100968.03
2023-01-12T09:03:44.471Z,100963.69
2023-01-12T09:06:27.011Z,100972.94
2023-01-12T09:08:55.713Z,100977.63
2023-01-12T09:11:23.653Z,100982.53
2023-01-12T09:13:50.634Z,100978.72
2023-01-12T09:16:19.491Z,100983.88
2023-01-12T09:18:46.996Z,100985.53
2023-01-12T09:21:16.700Z,100990.44
2023-01-12T09:23:44.082Z,100982.78
2023-01-12T09:26:20.112Z,100994.50
2023-01-12T09:28:47.311Z,100993.66
2023-01-12T09:31:18.765Z,100990.69
2023-01-12T09:33:47.084Z,100991.25
2023-01-12T09:36:15.419Z,100989.34
2023-01-12T09:38:44.203Z,100991.81
2023-01-12T09:41:44.977Z,100982.50
2023-01-12T09:44:52.998Z,100993.44
2023-01-12T09:47:44.960Z,100990.41
2023-01-12T09:50:26.052Z,100980.56
2023-01-12T09:53:03.179Z,100978.91
2023-01-12T09:55:44.362Z,100967.16
2023-01-12T09:58:35.654Z,100970.97
2023-01-12T10:01:14.587Z,100960.03
2023-01-12T10:03:44.600Z,100959.22
2023-01-12T10:06:19.807Z,100944.19
2023-01-12T10:08:50.905Z,100949.94
2023-01-12T10:11:34.413Z,100937.34
2023-01-12T10:14:38.276Z,100940.03
2023-01-12T10:17:16.192Z,100954.28
2023-01-12T10:20:05.614Z,100960.81
2023-01-12T10:22:40.445Z,100950.19
2023-01-12T10:25:16.481Z,100947.47
2023-01-12T10:27:46.819Z,100946.09
2023-01-12T10:30:31.694Z,100939.53
2023-01-12T10:33:09.874Z,100935.41
2023-01-12T10:35:47.337Z,100936.72
2023-01-12T10:38:30.061Z,100937.00
2023-01-12T10:41:13.881Z,100932.34
2023-01-12T10:43:42.400Z,100937.81
2023-01-12T10:46:23.331Z,100935.41
2023-01-12T10:48:53.847Z,100933.75
2023-01-12T10:51:28.648Z,100940.88
2023-01-12T10:54:09.584Z,100941.38
2023-01-12T10:56:53.420Z,100947.88
2023-01-12T10:59:24.201Z,100946.50
2023-01-12T11:02:09.322Z,100948.16
2023-01-12T11:04:48.300Z,100950.03
2023-01-12T11:07:19.794Z,100935.75
2023-01-12T11:09:46.837Z,100942.00
2023-01-12T11:12:45.171Z,100952.69
2023-01-12T11:15:12.303Z,100956.78
2023-01-12T11:17:52.208Z,100951.03
2023-01-12T11:20:42.423Z,100954.06
2023-01-12T11:23:29.068Z,100955.91
2023-01-12T11:25:59.534Z,100950.72
2023-01-12T11:28:43.147Z,100956.72
2023-01-12T11:31:25.788Z,100950.38
2023-01-12T11:34:02.210Z,100947.66
2023-01-12T11:36:37.645Z,100953.94
2023-01-12T11:39:13.675Z,100945.47
2023-01-12T11:42:08.280Z,100950.34
2023-01-12T11:44:43.571Z,100936.97
2023-01-12T11:47:15.680Z,100938.88
2023-01-12T11:50:20.044Z,100942.13
2023-01-12T11:52:47.030Z,100923.00
2023-01-12T11:55:19.856Z,100938.25
2023-01-12T11:58:20.393Z,100932.00
2023-01-12T12:00:51.888Z,100928.81
2023-01-12T12:03:40.291Z,100929.66
2023-01-12T12:06:10.449Z,100927.47
2023-01-12T12:09:02.244Z,100930.47
2023-01-12T12:11:41.998Z,100929.94
2023-01-12T12:14:24.150Z,100924.16
2023-01-12T12:16:58.994Z,100938.34
2023-01-12T12:19:49.748Z,100937.16
2023-01-12T12:22:37.239Z,100939.28
2023-01-12T12:25:22.595Z,100947.13
2023-01-12T12:28:00.250Z,100943.31
2023-01-12T12:31:13.946Z,100934.56
2023-01-12T12:34:05.421Z,100942.44
2023-01-12T12:36:57.800Z,100939.13
2023-01-12T12:39:30.920Z,100937.97
2023-01-12T12:42:39.076Z,100950.03
2023-01-12T12:45:26.288Z,100943.28
2023-01-12T12:48:06.049Z,100937.25
2023-01-12T12:51:03.760Z,100945.19
2023-01-12T12:53:41.898Z,100950.88
2023-01-12T12:56:21.286Z,100943.22
2023-01-12T12:58:50.452Z,100941.88
2023-01-12T13:01:20.419Z,100956.59
2023-01-12T13:03:53.014Z,100961.16
2023-01-12T13:06:36.367Z,100950.91
2023-01-12T13:09:09.469Z,100958.31
2023-01-12T13:12:18.965Z,100953.16
2023-01-12T13:15:21.045Z,100958.34
2023-01-12T13:17:49.645Z,100956.41
2023-01-12T13:20:25.784Z,100959.75
2023-01-12T13:22:53.462Z,100962.97
2023-01-12T13:25:20.641Z,100966.03
2023-01-12T13:28:18.105Z,100963.91
2023-01-12T13:30:53.666Z,100972.63
2023-01-12T13:33:26.596Z,100975.34
2023-01-12T13:35:53.471Z,100967.38
2023-01-12T13:38:39.062Z,100968.22
2023-01-12T13:41:15.165Z,100975.00
2023-01-12T13:43:50.255Z,100970.44
2023-01-12T13:46:30.010Z,100969.31
2023-01-12T13:48:57.323Z,100956.75
2023-01-12T13:51:26.136Z,100962.16
2023-01-12T13:54:05.939Z,100968.69
2023-01-12T13:56:33.337Z,100968.63
2023-01-12T13:59:02.355Z,100962.06
2023-01-12T14:01:33.775Z,100960.16
2023-01-12T14:04:20.424Z,100962.00
2023-01-12T14:07:15.358Z,100964.72
2023-01-12T14:09:57.220Z,100956.88
2023-01-12T14:12:48.612Z,100962.59
2023-01-12T14:15:41.545Z,100949.16
2023-01-12T14:18:21.181Z,100956.78
2023-01-12T14:20:50.937Z,100954.59
2023-01-12T14:23:19.663Z,100967.16
2023-01-12T14:26:02.726Z,100953.19
2023-01-12T14:28:30.423Z,100965.50
2023-01-12T14:30:58.093Z,100963.03
2023-01-12T14:33:31.635Z,100972.31
2023-01-12T14:36:05.875Z,100962.78
2023-01-12T14:38:35.184Z,100966.66
2023-01-12T14:41:31.353Z,100965.75
2023-01-12T14:44:16.764Z,100969.53
2023-01-12T14:46:50.187Z,100980.50
2023-01-12T14:49:21.398Z,100983.16
2023-01-12T14:52:02.816Z,100988.06
2023-01-12T14:54:32.796Z,100992.75
2023-01-12T14:57:07.437Z,100987.00
2023-01-12T14:59:37.996Z,100983.16
2023-01-12T15:02:13.996Z,100997.13
2023-01-12T15:05:07.187Z,100991.50
2023-01-12T15:07:37.965Z,100993.13
2023-01-12T15:10:10.985Z,100993.91
2023-01-12T15:28:42.606Z,100990.66
2023-01-12T15:31:36.573Z,100998.38
2023-01-12T15:34:05.005Z,100994.63
2023-01-12T15:36:32.065Z,101003.72
2023-01-12T15:38:58.909Z,100998.59
2023-01-12T15:41:50.362Z,101000.03
2023-01-12T15:44:19.783Z,101005.47
2023-01-12T15:46:47.145Z,101004.16
2023-01-12T15:49:14.891Z,101006.06
2023-01-12T15:51:44.264Z,101010.03
2023-01-12T15:54:13.171Z,101009.25
2023-01-12T15:56:40.333Z,101017.22
2023-01-12T15:59:07.176Z,101007.66
2023-01-12T16:01:49.930Z,101010.03
2023-01-12T16:04:42.180Z,101015.44
2023-01-12T16:07:09.501Z,101014.63
2023-01-12T16:09:36.546Z,101004.47
2023-01-12T16:12:03.521Z,101004.97
2023-01-12T16:14:30.377Z,101006.09
2023-01-12T16:16:57.209Z,100998.97
2023-01-12T16:19:24.260Z,101007.66
2023-01-12T16:21:55.252Z,101013.13
2023-01-12T16:24:24.286Z,101014.59
2023-01-12T16:26:51.233Z,101006.63
2023-01-12T16:29:19.343Z,101009.56
2023-01-12T16:31:46.251Z,101018.56
2023-01-12T16:34:13.141Z,101011.72
2023-01-12T16:36:40.195Z,101021.63
2023-01-12T16:39:07.436Z,101018.63
2023-01-12T16:41:34.492Z,101019.09
2023-01-12T16:44:01.464Z,101015.84
2023-01-12T16:46:28.282Z,101024.38
2023-01-12T16:48:56.423Z,101027.38
2023-01-12T16:51:24.596Z,101021.66
2023-01-12T16:53:55.243Z,101019.47
2023-01-12T16:56:22.166Z,101023.84
2023-01-12T16:58:49.088Z,101030.72
2023-01-12T17:01:22.268Z,101024.03
2023-01-12T17:03:57.556Z,101029.75
2023-01-12T17:06:26.661Z,101037.34
2023-01-12T17:08:54.321Z,101040.75
2023-01-12T17:11:24.219Z,101050.22
2023-01-12T17:13:53.305Z,101051.63
2023-01-12T17:16:22.426Z,101054.13
2023-01-12T17:18:50.889Z,101055.97
2023-01-12T17:21:18.860Z,101054.34
2023-01-12T17:23:46.913Z,101055.97
2023-01-12T17:26:19.091Z,101061.72
2023-01-12T17:28:47.387Z,101051.63
2023-01-12T17:31:18.845Z,101052.16
2023-01-12T17:33:46.541Z,101051.16
2023-01-12T17:36:13.934Z,101045.16
2023-01-12T17:38:40.912Z,101048.66
2023-01-12T17:41:09.778Z,101053.03
2023-01-12T17:43:37.400Z,101050.50
2023-01-12T17:46:04.712Z,101065.78
2023-01-12T17:48:31.781Z,101046.16
2023-01-12T17:50:58.665Z,101052.75
2023-01-12T17:53:25.636Z,101044.28
2023-01-12T17:55:53.323Z,101049.38
2023-01-12T17:58:20.347Z,101056.25
2023-01-12T18:00:47.280Z,101062.44
2023-01-12T18:03:14.148Z,101059.66
2023-01-12T18:05:44.517Z,101057.47
2023-01-12T18:08:12.466Z,101061.03
2023-01-12T18:10:39.326Z,101051.72
2023-01-12T18:13:06.337Z,101072.16
2023-01-12T18:15:33.276Z,101062.28
2023-01-12T18:18:00.243Z,101065.06
2023-01-12T18:20:28.073Z,101061.13
2023-01-12T18:22:55.334Z,101057.81
2023-01-12T18:25:22.282Z,101069.88
2023-01-12T18:27:49.221Z,101065.50
2023-01-12T18:30:16.426Z,101064.63
2023-01-12T18:32:43.389Z,101057.03
2023-01-12T18:35:10.622Z,101064.69
2023-01-12T18:37:37.833Z,101068.19
2023-01-12T18:40:05.107Z,101074.22
2023-01-12T18:42:50.087Z,101068.69
2023-01-12T18:45:24.571Z,101075.59
2023-01-12T18:48:10.571Z,101070.06
2023-01-12T18:50:55.755Z,101061.56
2023-01-12T18:53:24.473Z,101063.88
2023-01-12T18:55:57.317Z,101059.19
2023-01-12T18:58:28.839Z,101055.38
2023-01-12T19:00:57.953Z,101067.69
2023-01-12T19:03:25.300Z,101066.84
2023-01-12T19:05:54.918Z,101060.53
2023-01-12T19:08:40.510Z,101068.38
2023-01-12T19:11:12.049Z,101070.28
2023-01-12T19:13:57.842Z,101062.94
2023-01-12T19:16:43.458Z,101077.09
2023-01-12T19:19:10.936Z,101075.22
2023-01-12T19:21:56.575Z,101074.91
2023-01-12T19:24:42.100Z,101062.81
2023-01-12T19:27:31.179Z,101073.38
2023-01-12T19:29:58.027Z,101068.63
2023-01-12T19:32:24.920Z,101062.25
2023-01-12T19:34:56.327Z,101063.63
2023-01-12T19:37:23.570Z,101064.47
2023-01-12T19:40:04.018Z,101062.63
2023-01-12T19:43:08.330Z,101067.25
2023-01-12T19:45:50.272Z,101063.47
2023-01-12T19:48:18.769Z,101067.56
2023-01-12T19:50:46.250Z,101056.91
2023-01-12T19:53:19.148Z,101060.78
2023-01-12T19:55:47.333Z,101052.88
2023-01-12T19:58:14.562Z,101064.91
2023-01-12T20:00:48.057Z,101074.44
2023-01-12T20:03:17.617Z,101075.09
2023-01-12T20:05:47.603Z,101077.75
2023-01-12T20:08:15.504Z,101088.91
2023-01-12T20:10:42.396Z,101074.44
2023-01-12T20:13:12.126Z,101075.59
2023-01-12T20:15:40.406Z,101085.94
2023-01-12T20:18:08.800Z,101084.78
2023-01-12T20:20:36.007Z,101074.97
2023-01-12T20:23:03.154Z,101086.22
2023-01-12T20:25:30.135Z,101078.69
2023-01-12T20:27:57.860Z,101082.00
2023-01-12T20:30:37.588Z,101077.38
2023-01-12T20:33:06.377Z,101083.81
2023-01-12T20:35:35.093Z,101086.53
2023-01-12T20:38:04.378Z,101094.09
2023-01-12T20:40:31.544Z,101088.34
2023-01-12T20:42:58.574Z,101092.75
2023-01-12T20:45:25.471Z,101094.41
2023-01-12T20:47:52.423Z,101090.00
2023-01-12T20:50:19.446Z,101101.75
2023-01-12T20:52:51.054Z,101100.94
2023-01-12T20:55:18.006Z,101113.47
2023-01-12T20:57:44.903Z,101114.22
2023-01-12T21:00:12.821Z,101101.88
2023-01-12T21:02:40.590Z,101105.19
2023-01-12T21:05:09.033Z,101104.38
2023-01-12T21:07:36.331Z,101113.84
2023-01-12T21:10:03.951Z,101116.31
2023-01-12T21:12:30.922Z,101117.47
2023-01-12T21:14:57.848Z,101109.28
2023-01-12T21:17:24.703Z,101124.16
2023-01-12T21:19:51.674Z,101116.25
2023-01-12T21:22:20.595Z,101116.44
2023-01-12T21:24:47.992Z,101117.59
2023-01-12T21:27:14.960Z,101125.75
2023-01-12T21:29:41.989Z,101120.63
2023-01-12T21:32:08.825Z,101117.81
2023-01-12T21:34:35.773Z,101111.25
2023-01-12T21:37:02.627Z,101106.13
2023-01-12T21:39:29.455Z,101115.94
2023-01-12T21:42:14.648Z,101111.63
2023-01-12T21:44:41.609Z,101105.66
2023-01-12T21:47:08.484Z,101112.47
2023-01-12T21:49:35.395Z,101104.81
2023-01-12T21:52:02.438Z,101099.16
2023-01-12T21:54:29.439Z,101103.78
2023-01-12T21:56:56.321Z,101096.38
2023-01-12T21:59:23.074Z,101112.78
2023-01-12T22:01:50.053Z,101099.31
2023-01-12T22:04:17.214Z,101089.09
2023-01-12T22:06:44.223Z,101096.50
2023-01-12T22:09:11.149Z,101092.88
2023-01-12T22:11:37.975Z,101092.06
2023-01-12T22:14:04.843Z,101094.34
2023-01-12T22:16:31.725Z,101100.63
2023-01-12T22:18:58.701Z,101091.38
2023-01-12T22:21:26.243Z,101092.19
2023-01-12T22:23:53.218Z,101097.13
2023-01-12T22:26:20.620Z,101087.59
2023-01-12T22:28:48.911Z,101085.94
2023-01-12T22:31:18.105Z,101084.28
2023-01-12T22:33:47.211Z,101086.56
2023-01-12T22:36:14.196Z,101094.16
2023-01-12T22:38:42.194Z,101086.00
2023-01-12T22:41:12.383Z,101091.75
2023-01-12T22:43:42.605Z,101089.03
2023-01-12T22:46:25.354Z,101091.16
2023-01-12T22:48:56.598Z,101099.78
2023-01-12T22:51:26.234Z,101096.16
2023-01-12T22:53:54.536Z,101092.75
2023-01-12T22:56:21.986Z,101091.69
2023-01-12T22:58:51.266Z,101086.56
2023-01-12T23:01:19.875Z,101086.31
2023-01-12T23:03:48.604Z,101088.59
2023-01-12T23:06:17.416Z,101075.19
2023-01-12T23:08:45.229Z,101077.81
2023-01-12T23:11:15.101Z,101076.69
2023-01-12T23:13:44.191Z,101067.94
2023-01-12T23:16:13.833Z,101084.53
2023-01-12T23:18:42.484Z,101071.44
2023-01-12T23:21:14.272Z,101074.47
2023-01-12T23:23:45.033Z,101076.09
2023-01-12T23:26:14.823Z,101076.38
2023-01-12T23:28:46.446Z,101089.78
2023-01-12T23:31:16.235Z,101088.72
2023-01-12T23:33:43.623Z,101093.72
2023-01-12T23:36:16.471Z,101089.34
2023-01-12T23:38:43.600Z,101090.16
2023-01-12T23:41:14.515Z,101096.50
2023-01-12T23:43:42.387Z,101094.78
2023-01-12T23:46:10.211Z,101092.88
2023-01-12T23:48:37.182Z,101104.06
2023-01-12T23:51:04.958Z,101108.91
2023-01-12T23:53:32.082Z,101113.91
2023-01-12T23:56:08.876Z,101120.94
2023-01-12T23:58:36.137Z,101110.38
